Winooski, Vermont
Current Conditions -  °F | °C
As of 3:54 PM on Tuesday 27 Jan 2015 (Local Time) from KBTV Reporting Station
Light Snow Light Snow  
Wind Chill: -10°   Ceiling: 1500
Heat Index:   Visibility: 1mi
Dew Point:   Wind: 17mph
Humidity: 73%   Direction: 350°N
Pressure: 29.93"   Gusts: 25mph
Location:  44.49°N, 73.19°W
Report Text: KBTV 272054Z 35015G22KT 1SM R15/4500V5500FT -SN VV015 M13/M17 A2993 RMK AO2 SLP145 P0000 60003 T11331172 53002
Loading
Personal Weather Stations






























Interactive Weather Map New forecast layout! Learn more

10-Day Weather Forecast

Advertisements
Track Severe Weather on mobile